createdAt,value
2018-09-10T00:00:35.737Z,16.7
2018-09-10T00:01:45.587Z,16.66
2018-09-10T00:02:54.892Z,16.58
2018-09-10T00:04:04.465Z,16.66
2018-09-10T00:05:14.034Z,16.68
2018-09-10T00:06:23.874Z,16.61
2018-09-10T00:07:33.722Z,16.7
2018-09-10T00:08:42.752Z,16.7
2018-09-10T00:09:52.057Z,16.78
2018-09-10T00:11:02.167Z,16.71
2018-09-10T00:12:12.010Z,16.68
2018-09-10T00:13:21.319Z,16.68
2018-09-10T00:14:31.441Z,16.68
2018-09-10T00:15:41.008Z,16.7
2018-09-10T00:16:50.845Z,16.73
2018-09-10T00:18:00.414Z,16.68
2018-09-10T00:19:10.275Z,16.68
2018-09-10T00:20:20.119Z,16.73
2018-09-10T00:21:29.960Z,16.71
2018-09-10T00:22:39.537Z,16.7
2018-09-10T00:23:49.115Z,16.73
2018-09-10T00:24:58.718Z,16.76
2018-09-10T00:26:08.293Z,16.78
2018-09-10T00:27:17.607Z,16.81
2018-09-10T00:28:27.719Z,16.68
2018-09-10T00:29:37.290Z,16.73
2018-09-10T00:30:46.863Z,16.68
2018-09-10T00:31:56.169Z,16.75
2018-09-10T00:33:06.012Z,16.76
2018-09-10T00:34:16.131Z,16.75
2018-09-10T00:35:25.977Z,16.73
2018-09-10T00:36:35.282Z,16.79
2018-09-10T00:37:44.893Z,16.71
2018-09-10T00:38:54.734Z,16.71
2018-09-10T00:40:04.310Z,16.73
2018-09-10T00:41:13.880Z,16.7
2018-09-10T00:42:23.187Z,16.75
2018-09-10T00:43:32.217Z,16.7
2018-09-10T00:44:42.073Z,16.71
2018-09-10T00:45:52.235Z,16.73
2018-09-10T00:47:02.084Z,16.7
2018-09-10T00:48:11.926Z,16.78
2018-09-10T00:49:22.041Z,16.75
2018-09-10T00:50:31.616Z,16.78
2018-09-10T00:51:41.459Z,16.78
2018-09-10T00:52:51.604Z,16.79
2018-09-10T00:54:01.177Z,16.67
2018-09-10T00:55:11.296Z,16.73
2018-09-10T00:56:21.140Z,16.73
2018-09-10T00:57:30.982Z,16.73
2018-09-10T00:58:40.283Z,16.68
2018-09-10T00:59:50.133Z,16.73
2018-09-10T01:01:00.250Z,16.75
2018-09-10T01:02:09.554Z,16.78
2018-09-10T01:03:19.666Z,16.76
2018-09-10T01:04:29.241Z,16.76
2018-09-10T01:05:38.821Z,16.68
2018-09-10T01:06:48.943Z,16.73
2018-09-10T01:07:58.789Z,16.71
2018-09-10T01:09:08.360Z,16.68
2018-09-10T01:10:18.206Z,16.76
2018-09-10T01:11:28.255Z,16.73
2018-09-10T01:12:37.863Z,16.73
2018-09-10T01:13:47.434Z,16.73
2018-09-10T01:14:57.596Z,16.71
2018-09-10T01:16:07.446Z,16.66
2018-09-10T01:17:17.313Z,16.67
2018-09-10T01:18:27.147Z,16.75
2018-09-10T01:19:36.728Z,16.63
2018-09-10T01:20:46.574Z,16.64
2018-09-10T01:21:56.152Z,16.71
2018-09-10T01:23:06.003Z,16.7
2018-09-10T01:24:16.111Z,16.61
2018-09-10T01:25:25.949Z,16.57
2018-09-10T01:26:35.517Z,16.66
2018-09-10T01:27:45.359Z,16.63
2018-09-10T01:28:54.929Z,16.58
2018-09-10T01:30:04.776Z,16.57
2018-09-10T01:31:14.080Z,16.56
2018-09-10T01:32:23.383Z,16.6
2018-09-10T01:33:32.684Z,16.61
2018-09-10T01:34:42.796Z,16.61
2018-09-10T01:35:52.364Z,16.6
2018-09-10T01:37:01.941Z,16.57
2018-09-10T01:38:11.836Z,16.63
2018-09-10T01:39:21.957Z,16.52
2018-09-10T01:40:31.795Z,16.57
2018-09-10T01:41:41.367Z,16.6
2018-09-10T01:42:51.212Z,16.61
2018-09-10T01:44:00.518Z,16.6
2018-09-10T01:45:10.385Z,16.57
2018-09-10T01:46:20.233Z,16.57
2018-09-10T01:47:30.080Z,16.6
2018-09-10T01:48:39.929Z,16.57
2018-09-10T01:49:49.240Z,16.61
2018-09-10T01:50:58.550Z,16.58
2018-09-10T01:52:08.404Z,16.61
2018-09-10T01:53:18.521Z,16.52
2018-09-10T01:54:28.595Z,16.57
2018-09-10T01:55:38.491Z,16.63
2018-09-10T01:56:48.340Z,16.56
2018-09-10T01:57:58.695Z,16.6
2018-09-10T01:59:08.562Z,16.58
2018-09-10T02:00:18.405Z,16.49
2018-09-10T02:01:28.346Z,16.63
2018-09-10T02:02:38.195Z,16.5
2018-09-10T02:03:48.043Z,16.49
2018-09-10T02:04:57.886Z,16.57
2018-09-10T02:06:07.197Z,16.6
2018-09-10T02:07:17.031Z,16.57
2018-09-10T02:08:26.636Z,16.57
2018-09-10T02:09:36.209Z,16.68
2018-09-10T02:10:45.244Z,16.6
2018-09-10T02:11:55.083Z,16.63
2018-09-10T02:13:05.193Z,16.64
2018-09-10T02:14:15.307Z,16.63
2018-09-10T02:15:24.880Z,16.58
2018-09-10T02:16:34.985Z,16.63
2018-09-10T02:17:44.565Z,16.71
2018-09-10T02:18:54.147Z,16.67
2018-09-10T02:20:03.720Z,16.68
2018-09-10T02:21:12.753Z,16.7
2018-09-10T02:22:22.607Z,16.68
2018-09-10T02:23:31.964Z,16.73
2018-09-10T02:24:41.917Z,16.73
2018-09-10T02:25:51.505Z,16.75
2018-09-10T02:27:01.344Z,16.76
2018-09-10T02:28:10.916Z,16.76
2018-09-10T02:29:21.441Z,16.79
2018-09-10T02:30:31.631Z,16.75
2018-09-10T02:31:41.489Z,16.71
2018-09-10T02:32:51.345Z,16.76
2018-09-10T02:34:01.483Z,16.75
2018-09-10T02:35:11.337Z,16.83
2018-09-10T02:36:20.947Z,16.79
2018-09-10T02:37:30.801Z,16.76
2018-09-10T02:38:41.267Z,16.73
2018-09-10T02:39:51.472Z,16.82
2018-09-10T02:41:01.250Z,16.76
2018-09-10T02:42:10.847Z,16.81
2018-09-10T02:43:20.699Z,16.79
2018-09-10T02:44:30.544Z,16.76
2018-09-10T02:45:40.119Z,16.78
2018-09-10T02:46:49.427Z,16.79
2018-09-10T02:47:58.734Z,16.78
2018-09-10T02:49:08.324Z,16.78
2018-09-10T02:50:17.903Z,16.82
2018-09-10T02:51:27.756Z,16.85
2018-09-10T02:52:37.875Z,16.81
2018-09-10T02:53:47.449Z,16.88
2018-09-10T02:54:57.315Z,16.88
2018-09-10T02:56:07.117Z,16.81
2018-09-10T02:57:16.157Z,16.78
2018-09-10T02:58:26.282Z,16.76
2018-09-10T02:59:36.130Z,16.76
2018-09-10T03:00:46.250Z,16.79
2018-09-10T03:01:56.100Z,16.76
2018-09-10T03:03:05.412Z,16.81
2018-09-10T03:04:15.528Z,16.79
2018-09-10T03:05:25.380Z,16.78
2018-09-10T03:06:35.227Z,16.73
2018-09-10T03:07:44.806Z,16.75
2018-09-10T03:08:54.378Z,16.78
2018-09-10T03:10:03.952Z,16.73
2018-09-10T03:11:13.802Z,16.81
2018-09-10T03:12:23.679Z,16.71
2018-09-10T03:13:33.803Z,16.83
2018-09-10T03:14:43.650Z,16.89
2018-09-10T03:15:53.228Z,16.86
2018-09-10T03:17:03.121Z,16.82
2018-09-10T03:18:12.973Z,16.85
2018-09-10T03:19:22.552Z,16.83
2018-09-10T03:20:32.399Z,16.88
2018-09-10T03:21:42.521Z,16.85
2018-09-10T03:22:52.675Z,16.89
2018-09-10T03:24:02.772Z,16.85
2018-09-10T03:25:13.088Z,16.83
2018-09-10T03:26:23.193Z,16.93
2018-09-10T03:27:32.771Z,16.88
2018-09-10T03:28:42.350Z,16.89
2018-09-10T03:29:51.652Z,16.96
2018-09-10T03:31:01.769Z,16.97
2018-09-10T03:32:11.641Z,16.94
2018-09-10T03:33:21.817Z,16.97
2018-09-10T03:34:31.721Z,16.94
2018-09-10T03:35:41.832Z,16.93
2018-09-10T03:36:52.159Z,16.91
2018-09-10T03:38:02.004Z,16.97
2018-09-10T03:39:12.115Z,16.91
2018-09-10T03:40:21.427Z,16.93
2018-09-10T03:41:31.272Z,16.88
2018-09-10T03:42:41.426Z,16.97
2018-09-10T03:43:50.464Z,16.93
2018-09-10T03:45:00.041Z,16.91
2018-09-10T03:46:09.354Z,16.96
2018-09-10T03:47:19.410Z,17.01
2018-09-10T03:48:29.545Z,16.93
2018-09-10T03:49:39.401Z,16.94
2018-09-10T03:50:49.246Z,17
2018-09-10T03:51:58.870Z,16.97
2018-09-10T03:53:08.723Z,16.93
2018-09-10T03:54:18.571Z,16.91
2018-09-10T03:55:28.424Z,16.88
2018-09-10T03:56:38.003Z,16.94
2018-09-10T03:57:47.849Z,17
2018-09-10T03:58:57.968Z,17.01
2018-09-10T04:00:06.743Z,17.01
2018-09-10T04:01:16.595Z,17.06
2018-09-10T04:02:26.711Z,17.01
2018-09-10T04:03:36.560Z,17.08
2018-09-10T04:04:45.595Z,17.01
2018-09-10T04:05:55.170Z,17.04
2018-09-10T04:07:04.741Z,17.04
2018-09-10T04:08:14.864Z,17
2018-09-10T04:09:24.445Z,16.94
2018-09-10T04:10:33.744Z,16.91
2018-09-10T04:11:43.885Z,17.03
2018-09-10T04:12:53.189Z,16.94
2018-09-10T04:14:03.026Z,17.08
2018-09-10T04:15:12.375Z,17.08
2018-09-10T04:16:22.486Z,17.08
2018-09-10T04:17:31.792Z,17.01
2018-09-10T04:18:41.642Z,17.01
2018-09-10T04:19:51.757Z,16.97
2018-09-10T04:21:01.871Z,16.98
2018-09-10T04:22:11.736Z,16.97
2018-09-10T04:23:21.587Z,17.04
2018-09-10T04:24:31.161Z,17.12
2018-09-10T04:25:41.272Z,17.03
2018-09-10T04:26:50.879Z,17.12
2018-09-10T04:28:00.193Z,16.98
2018-09-10T04:29:09.766Z,16.98
2018-09-10T04:30:19.620Z,17
2018-09-10T04:31:29.469Z,16.94
2018-09-10T04:32:38.768Z,16.98
2018-09-10T04:33:48.072Z,17.01
2018-09-10T04:34:57.916Z,17.01
2018-09-10T04:36:07.566Z,17.03
2018-09-10T04:37:18.027Z,17.03
2018-09-10T04:38:27.926Z,17.04
2018-09-10T04:39:37.501Z,17.03
2018-09-10T04:40:47.081Z,17
2018-09-10T04:41:57.200Z,16.91
2018-09-10T04:43:07.046Z,16.88
2018-09-10T04:44:16.900Z,17
2018-09-10T04:45:26.740Z,16.96
2018-09-10T04:46:36.854Z,16.88
2018-09-10T04:47:46.436Z,16.93
2018-09-10T04:48:56.325Z,16.91
2018-09-10T04:50:05.689Z,16.93
2018-09-10T04:51:15.002Z,16.93
2018-09-10T04:52:24.853Z,17
2018-09-10T04:53:34.434Z,16.94
2018-09-10T04:54:44.344Z,16.96
2018-09-10T04:55:54.257Z,16.94
2018-09-10T04:57:04.336Z,16.94
2018-09-10T04:58:13.796Z,16.96
2018-09-10T04:59:24.152Z,16.88
2018-09-10T05:00:34.275Z,16.93
2018-09-10T05:01:43.628Z,17.07
2018-09-10T05:02:53.478Z,16.94
2018-09-10T05:04:03.347Z,16.91
2018-09-10T05:05:13.189Z,16.96
2018-09-10T05:06:22.772Z,16.94
2018-09-10T05:07:32.356Z,16.93
2018-09-10T05:08:42.203Z,16.96
2018-09-10T05:09:51.867Z,16.93
2018-09-10T05:11:02.178Z,16.93
2018-09-10T05:12:11.484Z,16.88
2018-09-10T05:13:21.606Z,16.91
2018-09-10T05:14:31.183Z,16.88
2018-09-10T05:15:40.758Z,16.85
2018-09-10T05:16:50.332Z,16.86
2018-09-10T05:17:59.907Z,16.88
2018-09-10T05:19:09.765Z,16.83
2018-09-10T05:20:19.620Z,16.93
2018-09-10T05:21:28.958Z,16.93
2018-09-10T05:22:39.082Z,16.94
2018-09-10T05:23:49.203Z,16.85
2018-09-10T05:24:59.049Z,16.91
2018-09-10T05:26:08.627Z,16.83
2018-09-10T05:27:18.199Z,16.93
2018-09-10T05:28:28.044Z,16.88
2018-09-10T05:29:38.204Z,16.85
2018-09-10T05:30:48.053Z,16.89
2018-09-10T05:31:57.903Z,16.88
2018-09-10T05:33:07.744Z,16.91
2018-09-10T05:34:17.332Z,16.85
2018-09-10T05:35:27.181Z,16.88
2018-09-10T05:36:36.500Z,16.94
2018-09-10T05:37:46.622Z,16.89
2018-09-10T05:38:56.207Z,16.91
2018-09-10T05:40:05.784Z,16.93
2018-09-10T05:41:15.092Z,16.94
2018-09-10T05:42:24.678Z,16.94
2018-09-10T05:43:34.524Z,16.93
2018-09-10T05:44:44.096Z,16.91
2018-09-10T05:45:53.670Z,16.94
2018-09-10T05:47:03.563Z,16.96
2018-09-10T05:48:13.407Z,16.91
2018-09-10T05:49:23.649Z,17.01
2018-09-10T05:50:33.233Z,17.01
2018-09-10T05:51:43.356Z,17.01
2018-09-10T05:52:53.474Z,17.06
2018-09-10T05:54:03.319Z,16.98
2018-09-10T05:55:13.174Z,17.08
2018-09-10T05:56:23.024Z,17.03
2018-09-10T05:57:32.328Z,17.06
2018-09-10T05:58:42.179Z,17.07
2018-09-10T05:59:51.481Z,17.03
2018-09-10T06:01:01.055Z,17.07
2018-09-10T06:02:10.689Z,17.03
2018-09-10T06:03:20.816Z,17.06
2018-09-10T06:04:30.676Z,17.03
2018-09-10T06:05:40.524Z,17.06
2018-09-10T06:06:50.551Z,17.08
2018-09-10T06:08:00.547Z,17.14
2018-09-10T06:09:10.595Z,17.06
2018-09-10T06:10:20.542Z,17.06
2018-09-10T06:11:30.582Z,17.16
2018-09-10T06:12:40.427Z,17.19
2018-09-10T06:13:50.009Z,17.14
2018-09-10T06:14:59.888Z,17.08
2018-09-10T06:16:09.705Z,17.19
2018-09-10T06:17:19.819Z,17.16
2018-09-10T06:18:29.670Z,17.19
2018-09-10T06:19:39.517Z,17.19
2018-09-10T06:20:49.090Z,17.15
2018-09-10T06:21:58.669Z,17.15
2018-09-10T06:23:08.791Z,17.18
2018-09-10T06:24:18.666Z,17.18
2018-09-10T06:25:28.511Z,17.21
2018-09-10T06:26:38.087Z,17.19
2018-09-10T06:27:47.930Z,17.16
2018-09-10T06:28:57.773Z,17.22
2018-09-10T06:30:07.405Z,17.31
2018-09-10T06:31:17.642Z,17.28
2018-09-10T06:32:27.488Z,17.31
2018-09-10T06:33:36.796Z,17.33
2018-09-10T06:34:46.369Z,17.31
2018-09-10T06:35:56.220Z,17.31
2018-09-10T06:37:06.044Z,17.34
2018-09-10T06:38:16.344Z,17.26
2018-09-10T06:39:26.451Z,17.38
2018-09-10T06:40:36.294Z,17.38
2018-09-10T06:41:45.861Z,17.38
2018-09-10T06:42:55.699Z,17.4
2018-09-10T06:44:05.328Z,17.43
2018-09-10T06:45:15.172Z,17.43
2018-09-10T06:46:25.020Z,17.41
2018-09-10T06:47:34.396Z,17.43
2018-09-10T06:48:43.715Z,17.43
2018-09-10T06:49:53.291Z,17.38
2018-09-10T06:51:03.134Z,17.48
2018-09-10T06:52:12.978Z,17.46
2018-09-10T06:53:22.865Z,17.51
2018-09-10T06:54:32.709Z,17.51
2018-09-10T06:55:42.835Z,17.54
2018-09-10T06:56:52.686Z,17.51
2018-09-10T06:58:02.797Z,17.55
2018-09-10T06:59:12.912Z,17.56
2018-09-10T07:00:23.058Z,17.54
2018-09-10T07:01:32.659Z,17.56
2018-09-10T07:02:42.505Z,17.63
2018-09-10T07:03:52.078Z,17.58
2018-09-10T07:05:01.930Z,17.62
2018-09-10T07:06:11.777Z,17.48
2018-09-10T07:07:21.472Z,17.54
2018-09-10T07:08:31.318Z,17.54
2018-09-10T07:09:41.169Z,17.56
2018-09-10T07:10:51.016Z,17.62
2018-09-10T07:12:00.859Z,17.68
2018-09-10T07:13:11.001Z,17.68
2018-09-10T07:14:21.372Z,17.66
2018-09-10T07:15:30.947Z,17.59
2018-09-10T07:16:40.820Z,17.71
2018-09-10T07:17:50.125Z,17.7
2018-09-10T07:18:59.820Z,17.7
2018-09-10T07:20:10.228Z,17.68
2018-09-10T07:21:20.069Z,17.59
2018-09-10T07:22:29.640Z,17.7
2018-09-10T07:23:39.217Z,17.68
2018-09-10T07:24:49.066Z,17.66
2018-09-10T07:25:58.907Z,17.63
2018-09-10T07:27:08.534Z,17.58
2018-09-10T07:28:18.108Z,17.64
2018-09-10T07:29:27.728Z,17.64
2018-09-10T07:30:37.298Z,17.66
2018-09-10T07:31:47.414Z,17.71
2018-09-10T07:32:57.264Z,17.62
2018-09-10T07:34:07.108Z,17.63
2018-09-10T07:35:16.953Z,17.74
2018-09-10T07:36:26.795Z,17.74
2018-09-10T07:37:36.662Z,17.74
2018-09-10T07:38:45.972Z,17.78
2018-09-10T07:39:55.818Z,17.84
2018-09-10T07:41:05.388Z,17.87
2018-09-10T07:42:15.228Z,17.95
2018-09-10T07:43:24.874Z,17.97
2018-09-10T07:44:34.554Z,18.05
2018-09-10T07:45:44.675Z,18.02
2018-09-10T07:46:54.567Z,18.1
2018-09-10T07:48:04.413Z,18.15
2018-09-10T07:49:14.272Z,18.15
2018-09-10T07:50:24.297Z,18.21
2018-09-10T07:51:34.226Z,18.17
2018-09-10T07:52:43.849Z,18.18
2018-09-10T07:53:53.694Z,18.21
2018-09-10T07:55:03.541Z,18.18
2018-09-10T07:56:12.852Z,18.12
2018-09-10T07:57:22.441Z,18.12
2018-09-10T07:58:32.017Z,18.29
2018-09-10T07:59:41.871Z,18.29
2018-09-10T08:00:51.515Z,18.36
2018-09-10T08:02:01.186Z,18.41
2018-09-10T08:03:11.740Z,18.41
2018-09-10T08:04:21.584Z,18.44
2018-09-10T08:05:30.891Z,18.42
2018-09-10T08:06:40.463Z,18.52
2018-09-10T08:07:50.584Z,18.5
2018-09-10T08:09:00.500Z,18.55
2018-09-10T08:10:10.148Z,18.67
2018-09-10T08:11:19.720Z,18.65
2018-09-10T08:12:29.614Z,18.78
2018-09-10T08:13:39.205Z,18.76
2018-09-10T08:14:49.085Z,18.87
2018-09-10T08:15:59.204Z,18.82
2018-09-10T08:17:08.782Z,18.87
2018-09-10T08:18:18.622Z,18.91
2018-09-10T08:19:27.929Z,19.07
2018-09-10T08:20:37.773Z,19.07
2018-09-10T08:21:47.886Z,19.13
2018-09-10T08:22:57.466Z,19.06
2018-09-10T08:24:07.068Z,19.14
2018-09-10T08:25:17.373Z,19.18
2018-09-10T08:26:27.538Z,19.18
2018-09-10T08:27:37.125Z,19.21
2018-09-10T08:28:47.249Z,19.18
2018-09-10T08:29:57.094Z,19.21
2018-09-10T08:31:06.940Z,19.21
2018-09-10T08:32:16.517Z,19.16
2018-09-10T08:33:26.096Z,19.23
2018-09-10T08:34:35.667Z,19.22
2018-09-10T08:35:45.454Z,19.18
2018-09-10T08:36:55.328Z,19.21
2018-09-10T08:38:04.910Z,19.23
2018-09-10T08:39:14.753Z,19.25
2018-09-10T08:40:24.602Z,19.22
2018-09-10T08:41:34.730Z,19.29
2018-09-10T08:42:44.702Z,19.37
2018-09-10T08:43:54.750Z,19.29
2018-09-10T08:45:03.840Z,19.44
2018-09-10T08:46:13.457Z,19.43
2018-09-10T08:47:23.577Z,19.41
2018-09-10T08:48:33.434Z,19.41
2018-09-10T08:49:43.024Z,19.4
2018-09-10T08:50:52.325Z,19.46
2018-09-10T08:52:01.630Z,19.5
2018-09-10T08:53:11.508Z,19.48
2018-09-10T08:54:21.607Z,19.51
2018-09-10T08:55:32.851Z,19.65
2018-09-10T08:56:43.205Z,19.59
2018-09-10T08:57:52.516Z,19.66
2018-09-10T08:59:02.364Z,19.73
2018-09-10T09:00:12.344Z,19.78
2018-09-10T09:01:22.626Z,19.78
2018-09-10T09:02:32.200Z,19.91
2018-09-10T09:03:42.322Z,19.88
2018-09-10T09:04:52.175Z,19.96
2018-09-10T09:06:02.558Z,19.98
2018-09-10T09:07:12.396Z,19.95
2018-09-10T09:08:22.507Z,19.95
2018-09-10T09:09:32.637Z,19.98
2018-09-10T09:10:41.941Z,20.01
2018-09-10T09:11:51.790Z,20.01
2018-09-10T09:13:01.637Z,20.06
2018-09-10T09:14:11.488Z,20.14
2018-09-10T09:15:21.346Z,20.05
2018-09-10T09:16:31.462Z,20.21
2018-09-10T09:17:41.316Z,20.21
2018-09-10T09:18:51.182Z,20.16
2018-09-10T09:20:00.765Z,20.24
2018-09-10T09:21:10.340Z,20.16
2018-09-10T09:22:19.912Z,20.32
2018-09-10T09:23:29.831Z,20.29
2018-09-10T09:24:39.595Z,20.33
2018-09-10T09:25:49.168Z,20.36
2018-09-10T09:26:59.018Z,20.33
2018-09-10T09:28:08.862Z,20.35
2018-09-10T09:29:18.739Z,20.35
2018-09-10T09:30:28.591Z,20.36
2018-09-10T09:31:37.925Z,20.35
2018-09-10T09:32:47.502Z,20.31
2018-09-10T09:33:57.078Z,20.33
2018-09-10T09:35:06.393Z,20.35
2018-09-10T09:36:16.491Z,20.41
2018-09-10T09:37:26.143Z,20.43
2018-09-10T09:38:35.999Z,20.38
2018-09-10T09:39:45.893Z,20.55
2018-09-10T09:40:55.465Z,20.48
2018-09-10T09:42:05.046Z,20.54
2018-09-10T09:43:14.798Z,20.64
2018-09-10T09:44:25.030Z,20.47
2018-09-10T09:45:34.851Z,20.55
2018-09-10T09:46:44.979Z,20.48
2018-09-10T09:47:54.827Z,20.54
2018-09-10T09:49:04.407Z,20.41
2018-09-10T09:50:14.515Z,20.47
2018-09-10T09:51:23.985Z,20.41
2018-09-10T09:52:33.590Z,20.41
2018-09-10T09:53:43.161Z,20.48
2018-09-10T09:54:53.281Z,20.41
2018-09-10T09:56:02.593Z,20.5
2018-09-10T09:57:12.509Z,20.5
2018-09-10T09:58:22.347Z,20.52
2018-09-10T09:59:31.929Z,20.48
2018-09-10T10:00:41.560Z,20.51
2018-09-10T10:01:51.411Z,20.58
2018-09-10T10:03:01.500Z,20.69
2018-09-10T10:04:11.011Z,20.7
2018-09-10T10:05:21.410Z,20.87
2018-09-10T10:06:31.259Z,20.94
2018-09-10T10:07:41.111Z,20.85
2018-09-10T10:08:50.966Z,20.85
2018-09-10T10:10:01.118Z,20.88
2018-09-10T10:11:11.168Z,20.91
2018-09-10T10:12:22.156Z,20.87
2018-09-10T10:13:32.671Z,20.97
2018-09-10T10:14:42.543Z,20.92
2018-09-10T10:15:52.124Z,21.07
2018-09-10T10:17:01.701Z,21.06
2018-09-10T10:18:10.792Z,21.03
2018-09-10T10:19:20.367Z,21.1
2018-09-10T10:20:29.955Z,21.16
2018-09-10T10:21:39.538Z,21.21
2018-09-10T10:22:49.116Z,21.21
2018-09-10T10:23:58.967Z,21.32
2018-09-10T10:25:08.824Z,21.31
2018-09-10T10:26:18.404Z,21.27
2018-09-10T10:27:27.972Z,21.25
2018-09-10T10:28:37.548Z,21.25
2018-09-10T10:29:47.408Z,21.35
2018-09-10T10:30:56.985Z,21.31
2018-09-10T10:32:06.023Z,21.28
2018-09-10T10:33:16.137Z,21.34
2018-09-10T10:34:25.714Z,21.49
2018-09-10T10:35:35.882Z,21.44
2018-09-10T10:36:45.468Z,21.43
2018-09-10T10:37:54.775Z,21.37
2018-09-10T10:39:04.373Z,21.38
2018-09-10T10:40:14.255Z,21.5
2018-09-10T10:41:24.110Z,21.53
2018-09-10T10:42:33.688Z,21.58
2018-09-10T10:43:43.812Z,21.65
2018-09-10T10:44:53.657Z,21.65
2018-09-10T10:46:02.992Z,21.71
2018-09-10T10:47:12.849Z,21.79
2018-09-10T10:48:22.460Z,21.77
2018-09-10T10:49:32.061Z,21.92
2018-09-10T10:50:41.968Z,21.86
2018-09-10T10:51:51.546Z,21.86
2018-09-10T10:53:01.124Z,21.9
2018-09-10T10:54:11.242Z,21.84
2018-09-10T10:55:20.817Z,21.77
2018-09-10T10:56:30.954Z,21.82
2018-09-10T10:57:41.077Z,21.82
2018-09-10T10:58:51.192Z,21.84
2018-09-10T11:00:01.041Z,21.74
2018-09-10T11:01:10.627Z,21.84
2018-09-10T11:02:20.204Z,21.96
2018-09-10T11:03:29.782Z,22.05
2018-09-10T11:04:39.951Z,22.09
2018-09-10T11:05:49.802Z,22.09
2018-09-10T11:06:59.653Z,22.09
2018-09-10T11:08:09.230Z,22.09
2018-09-10T11:09:18.809Z,22.12
2018-09-10T11:10:28.985Z,22.1
2018-09-10T11:11:38.574Z,22.09
2018-09-10T11:12:48.460Z,22.07
2018-09-10T11:13:58.578Z,22.05
2018-09-10T11:15:07.890Z,21.96
2018-09-10T11:16:17.204Z,22
2018-09-10T11:17:27.044Z,22.03
2018-09-10T11:18:37.164Z,21.91
2018-09-10T11:19:47.009Z,21.94
2018-09-10T11:20:56.619Z,21.91
2018-09-10T11:22:06.468Z,22
2018-09-10T11:23:16.638Z,22.06
2018-09-10T11:24:26.762Z,22.06
2018-09-10T11:25:36.892Z,22.09
2018-09-10T11:26:46.197Z,22.09
2018-09-10T11:27:55.505Z,22.07
2018-09-10T11:29:04.819Z,22.25
2018-09-10T11:30:14.125Z,22.2
2018-09-10T11:31:23.701Z,22.21
2018-09-10T11:32:32.743Z,22.21
2018-09-10T11:33:42.860Z,22.28
2018-09-10T11:34:53.076Z,22.3
2018-09-10T11:36:02.920Z,22.37
2018-09-10T11:37:12.972Z,22.4
2018-09-10T11:38:23.084Z,22.49
2018-09-10T11:39:32.393Z,22.4
2018-09-10T11:40:41.977Z,22.51
2018-09-10T11:41:52.103Z,22.36
2018-09-10T11:43:01.684Z,22.4
2018-09-10T11:44:11.263Z,22.36
2018-09-10T11:45:21.106Z,22.3
2018-09-10T11:46:31.105Z,22.43
2018-09-10T11:47:40.596Z,22.37
2018-09-10T11:48:49.904Z,22.37
2018-09-10T11:49:59.480Z,22.3
2018-09-10T11:51:09.059Z,22.35
2018-09-10T11:52:18.744Z,22.4
2018-09-10T11:53:28.652Z,22.42
2018-09-10T11:54:38.772Z,22.31
2018-09-10T11:55:49.111Z,22.42
2018-09-10T11:56:59.000Z,22.37
2018-09-10T11:58:08.856Z,22.3
2018-09-10T11:59:17.894Z,22.28
2018-09-10T12:00:28.028Z,22.18
2018-09-10T12:01:38.252Z,22.2
2018-09-10T12:02:47.942Z,22.18
2018-09-10T12:03:57.527Z,22.2
2018-09-10T12:05:07.109Z,22.12
2018-09-10T12:06:16.966Z,22.14
2018-09-10T12:07:26.274Z,22.1
2018-09-10T12:08:35.860Z,22.25
2018-09-10T12:09:45.721Z,22.18
2018-09-10T12:10:55.844Z,22.28
2018-09-10T12:12:05.148Z,22.18
2018-09-10T12:13:15.279Z,22.22
2018-09-10T12:14:25.404Z,22.21
2018-09-10T12:15:35.250Z,22.25
2018-09-10T12:16:44.579Z,22.27
2018-09-10T12:17:54.611Z,22.31
2018-09-10T12:19:04.232Z,22.28
2018-09-10T12:20:13.819Z,22.21
2018-09-10T12:21:24.011Z,22.33
2018-09-10T12:22:33.925Z,22.3
2018-09-10T12:23:44.043Z,22.3
2018-09-10T12:24:53.624Z,22.36
2018-09-10T12:26:03.196Z,22.33
2018-09-10T12:27:12.502Z,22.35
2018-09-10T12:28:22.082Z,22.31
2018-09-10T12:29:31.940Z,22.27
2018-09-10T12:30:41.572Z,22.31
2018-09-10T12:31:51.689Z,22.3
2018-09-10T12:33:01.004Z,22.18
2018-09-10T12:34:10.046Z,22.2
2018-09-10T12:35:19.622Z,22.25
2018-09-10T12:36:29.470Z,22.18
2018-09-10T12:37:39.316Z,22.15
2018-09-10T12:38:48.896Z,22.1
2018-09-10T12:39:58.754Z,22.09
2018-09-10T12:41:08.060Z,22.06
2018-09-10T12:42:17.638Z,22.05
2018-09-10T12:43:27.756Z,22.12
2018-09-10T12:44:37.338Z,22.18
2018-09-10T12:45:47.187Z,22.2
2018-09-10T12:46:57.042Z,22.14
2018-09-10T12:48:06.625Z,22.21
2018-09-10T12:49:16.204Z,22.15
2018-09-10T12:50:26.056Z,22.07
2018-09-10T12:51:35.370Z,22
2018-09-10T12:52:45.523Z,22.09
2018-09-10T12:53:55.100Z,22.21
2018-09-10T12:55:04.416Z,22.21
2018-09-10T12:56:14.531Z,22.21
2018-09-10T12:57:24.105Z,22.31
2018-09-10T12:58:33.680Z,22.35
2018-09-10T12:59:43.554Z,22.31
2018-09-10T13:00:53.402Z,22.24
2018-09-10T13:02:03.252Z,22.12
2018-09-10T13:03:12.837Z,22.14
2018-09-10T13:04:22.686Z,22.14
2018-09-10T13:05:32.213Z,22.22
2018-09-10T13:06:41.797Z,22.12
2018-09-10T13:07:51.376Z,22.12
2018-09-10T13:09:00.949Z,22.09
2018-09-10T13:10:10.528Z,22.24
2018-09-10T13:11:20.644Z,22.21
2018-09-10T13:12:30.486Z,22.21
2018-09-10T13:13:40.341Z,22.2
2018-09-10T13:14:50.190Z,22.33
2018-09-10T13:16:00.039Z,22.35
2018-09-10T13:17:09.970Z,22.33
2018-09-10T13:18:20.098Z,22.33
2018-09-10T13:19:29.674Z,22.51
2018-09-10T13:20:39.793Z,22.51
2018-09-10T13:21:49.095Z,22.52
2018-09-10T13:22:58.937Z,22.6
2018-09-10T13:24:09.052Z,22.52
2018-09-10T13:25:18.911Z,22.62
2018-09-10T13:26:28.762Z,22.61
2018-09-10T13:27:38.880Z,22.49
2018-09-10T13:28:48.469Z,22.55
2018-09-10T13:29:58.419Z,22.61
2018-09-10T13:31:08.271Z,22.55
2018-09-10T13:32:18.123Z,22.55
2018-09-10T13:33:28.251Z,22.46
2018-09-10T13:34:38.113Z,22.45
2018-09-10T13:35:47.695Z,22.49
2018-09-10T13:36:57.815Z,22.51
2018-09-10T13:38:07.669Z,22.54
2018-09-10T13:39:17.261Z,22.35
2018-09-10T13:40:27.385Z,22.31
2018-09-10T13:41:36.983Z,22.39
2018-09-10T13:42:46.837Z,22.36
2018-09-10T13:43:56.463Z,22.27
2018-09-10T13:45:06.101Z,22.31
2018-09-10T13:46:15.943Z,22.22
2018-09-10T13:47:25.533Z,22.21
2018-09-10T13:48:35.377Z,22.18
2018-09-10T13:49:45.219Z,21.98
2018-09-10T13:50:55.070Z,22.06
2018-09-10T13:52:04.377Z,22.02
2018-09-10T13:53:14.009Z,22
2018-09-10T13:54:23.878Z,21.86
2018-09-10T13:55:34.000Z,21.84
2018-09-10T13:56:44.121Z,21.8
2018-09-10T13:57:53.720Z,21.8
2018-09-10T13:59:03.886Z,21.79
2018-09-10T14:00:13.462Z,21.79
2018-09-10T14:01:23.196Z,21.77
2018-09-10T14:02:33.355Z,21.79
2018-09-10T14:03:42.929Z,21.79
2018-09-10T14:04:53.043Z,21.83
2018-09-10T14:06:02.348Z,21.74
2018-09-10T14:07:11.111Z,21.84
2018-09-10T14:08:21.225Z,21.86
2018-09-10T14:09:30.818Z,21.84
2018-09-10T14:10:41.146Z,21.88
2018-09-10T14:11:51.117Z,21.86
2018-09-10T14:13:00.634Z,21.92
2018-09-10T14:14:11.465Z,21.99
2018-09-10T14:15:21.064Z,21.92
2018-09-10T14:16:30.661Z,21.92
2018-09-10T14:17:39.972Z,21.9
2018-09-10T14:18:49.557Z,21.9
2018-09-10T14:19:59.152Z,21.9
2018-09-10T14:21:08.751Z,21.9
2018-09-10T14:22:18.071Z,21.79
2018-09-10T14:23:27.931Z,21.77
2018-09-10T14:24:37.246Z,21.74
2018-09-10T14:25:46.845Z,21.72
2018-09-10T14:26:56.437Z,21.68
2018-09-10T14:28:05.528Z,21.62
2018-09-10T14:29:14.852Z,21.52
2018-09-10T14:30:25.003Z,21.52
2018-09-10T14:31:34.898Z,21.5
2018-09-10T14:32:44.780Z,21.49
2018-09-10T14:33:54.726Z,21.47
2018-09-10T14:35:04.839Z,21.47
2018-09-10T14:36:15.047Z,21.46
2018-09-10T14:37:24.634Z,21.47
2018-09-10T14:38:33.945Z,21.49
2018-09-10T14:39:43.824Z,21.47
2018-09-10T14:40:54.017Z,21.47
2018-09-10T14:42:04.150Z,21.47
2018-09-10T14:43:13.618Z,21.49
2018-09-10T14:44:23.827Z,21.4
2018-09-10T14:45:33.982Z,21.42
2018-09-10T14:46:44.129Z,21.44
2018-09-10T14:47:54.278Z,21.47
2018-09-10T14:49:03.870Z,21.4
2018-09-10T14:50:14.015Z,21.47
2018-09-10T14:51:23.391Z,21.46
2018-09-10T14:52:32.716Z,21.43
2018-09-10T14:53:43.958Z,21.44
2018-09-10T14:54:54.098Z,21.52
2018-09-10T14:56:03.947Z,21.47
2018-09-10T14:57:13.530Z,21.49
2018-09-10T14:58:23.265Z,21.4
2018-09-10T14:59:33.521Z,21.43
2018-09-10T15:00:43.371Z,21.44
2018-09-10T15:01:52.412Z,21.34